Terminal Aerodrome Forecast
Issued by NWS

Home | Current Version | Previous Version | Text Only | Print | Product List | Glossary Off
Versions: 1 2 3 4 5 6 7 8 9 10 11 12 13 14 15

000
FTUS43 KUNR 171043 AAA
TAFGCC
TAF AMD
KGCC 171043Z 1711/1806 32015KT P6SM BKN015
     FM171700 33025G35KT 3SM -SHSN BR OVC008
     FM180000 33014KT P6SM SCT015 BKN050=

USA.gov is the U.S. government's official web portal to all federal, state and local government web resources and services.